Big Spring, Illinois
Current Conditions -  °F | °C
As of 7:53 AM on Friday 28 Nov 2014 (Local Time) from KMTO Reporting Station
Few Clouds Few Clouds  
Wind Chill: 12°   Ceiling: Unl
Heat Index: 23°   Visibility: 10mi
Dew Point: 17°   Wind: 10mph
Humidity: 78%   Direction: 160°SSE
Pressure: 30.3"   Gusts: NA
Location:  39.3144°N, 88.4504°W
Report Text: KMTO 281353Z AUTO 16009KT 10SM FEW120 M05/M08 A3030 RMK AO2 SLP273 T10501083
Loading
Personal Weather Stations






























Interactive Weather Map New forecast layout! Learn more

10-Day Weather Forecast

Advertisements
Track Severe Weather on mobile